createdAt,value
2018-05-12T00:02:14.189Z,16.80
2018-05-12T00:05:16.839Z,16.70
2018-05-12T00:08:19.626Z,16.70
2018-05-12T00:11:23.116Z,16.60
2018-05-12T00:14:25.984Z,16.60
2018-05-12T00:17:28.534Z,16.60
2018-05-12T00:20:31.129Z,16.50
2018-05-12T00:23:33.753Z,16.50
2018-05-12T00:26:36.345Z,16.50
2018-05-12T00:29:38.991Z,16.50
2018-05-12T00:32:41.612Z,16.40
2018-05-12T00:35:44.201Z,16.40
2018-05-12T00:38:46.767Z,16.30
2018-05-12T00:41:49.412Z,16.40
2018-05-12T00:44:52.801Z,16.40
2018-05-12T00:47:56.201Z,16.30
2018-05-12T00:50:58.845Z,16.30
2018-05-12T00:54:01.508Z,16.30
2018-05-12T00:57:04.161Z,16.30
2018-05-12T01:00:06.792Z,16.20
2018-05-12T01:03:09.452Z,16.20
2018-05-12T01:06:12.084Z,16.10
2018-05-12T01:09:14.768Z,16.10
2018-05-12T01:12:17.392Z,16.00
2018-05-12T01:15:20.040Z,16.10
2018-05-12T01:18:22.780Z,16.10
2018-05-12T01:21:25.389Z,16.00
2018-05-12T01:24:27.961Z,16.00
2018-05-12T01:27:30.533Z,16.00
2018-05-12T01:30:33.103Z,15.90
2018-05-12T01:33:35.734Z,16.00
2018-05-12T01:36:38.461Z,16.00
2018-05-12T01:39:44.802Z,15.90
2018-05-12T01:42:47.450Z,15.90
2018-05-12T01:45:50.061Z,15.80
2018-05-12T01:48:52.646Z,15.90
2018-05-12T01:51:55.282Z,15.90
2018-05-12T01:54:58.033Z,15.90
2018-05-12T01:58:01.399Z,15.90
2018-05-12T02:01:03.991Z,15.90
2018-05-12T02:04:06.607Z,15.90
2018-05-12T02:07:09.185Z,15.80
2018-05-12T02:10:12.552Z,15.70
2018-05-12T02:13:15.911Z,15.70
2018-05-12T02:16:18.505Z,15.70
2018-05-12T02:19:21.117Z,15.70
2018-05-12T02:22:23.840Z,15.70
2018-05-12T02:25:26.480Z,15.70
2018-05-12T02:28:29.109Z,15.80
2018-05-12T02:31:31.696Z,15.80
2018-05-12T02:34:34.283Z,15.70
2018-05-12T02:37:36.992Z,15.70
2018-05-12T02:40:39.592Z,15.70
2018-05-12T02:43:43.693Z,15.60
2018-05-12T02:46:46.264Z,15.60
2018-05-12T02:49:48.867Z,15.50
2018-05-12T02:52:52.485Z,15.50
2018-05-12T02:55:55.084Z,15.50
2018-05-12T02:58:58.595Z,15.50
2018-05-12T03:02:01.299Z,15.50
2018-05-12T03:05:04.995Z,15.40
2018-05-12T03:08:08.658Z,15.30
2018-05-12T03:11:11.505Z,15.40
2018-05-12T03:14:15.840Z,15.40
2018-05-12T03:17:18.832Z,15.40
2018-05-12T03:20:21.405Z,15.40
2018-05-12T03:23:24.298Z,15.30
2018-05-12T03:26:27.091Z,15.30
2018-05-12T03:29:29.815Z,15.30
2018-05-12T03:32:32.886Z,15.30
2018-05-12T03:35:35.674Z,15.30
2018-05-12T03:38:38.295Z,15.40
2018-05-12T03:41:40.951Z,15.40
2018-05-12T03:44:43.712Z,15.40
2018-05-12T03:47:46.299Z,15.40
2018-05-12T03:50:49.506Z,15.40
2018-05-12T03:53:52.285Z,15.40
2018-05-12T03:56:55.038Z,15.40
2018-05-12T03:59:57.861Z,15.40
2018-05-12T04:03:00.379Z,15.40
2018-05-12T04:06:14.970Z,15.50
2018-05-12T04:09:29.269Z,15.50
2018-05-12T04:12:39.503Z,15.60
2018-05-12T04:15:42.487Z,15.70
2018-05-12T04:18:45.088Z,15.80
2018-05-12T04:21:47.660Z,15.80
2018-05-12T04:24:50.243Z,15.90
2018-05-12T04:27:52.851Z,16.00
2018-05-12T04:30:55.428Z,16.10
2018-05-12T04:33:58.022Z,16.20
2018-05-12T04:37:01.454Z,16.50
2018-05-12T04:40:04.052Z,16.50
2018-05-12T04:43:06.667Z,16.60
2018-05-12T04:46:09.252Z,16.80
2018-05-12T04:49:12.203Z,16.90
2018-05-12T04:52:14.771Z,17.00
2018-05-12T04:55:18.149Z,17.30
2018-05-12T04:58:20.786Z,17.20
2018-05-12T05:01:23.552Z,17.30
2018-05-12T05:04:26.236Z,17.40
2018-05-12T05:07:28.922Z,17.50
2018-05-12T05:10:32.045Z,17.70
2018-05-12T05:13:34.665Z,17.80
2018-05-12T05:16:37.231Z,18.00
2018-05-12T05:19:39.976Z,18.10
2018-05-12T05:22:42.712Z,18.30
2018-05-12T05:25:46.815Z,18.60
2018-05-12T05:28:49.458Z,18.60
2018-05-12T05:31:52.048Z,18.80
2018-05-12T05:34:54.642Z,18.90
2018-05-12T05:37:57.236Z,19.10
2018-05-12T05:40:59.969Z,19.30
2018-05-12T05:44:03.364Z,19.80
2018-05-12T05:47:06.042Z,19.80
2018-05-12T05:50:08.739Z,20.20
2018-05-12T05:53:12.059Z,21.30
2018-05-12T05:56:14.750Z,21.30
2018-05-12T05:59:17.453Z,22.00
2018-05-12T06:02:20.076Z,22.50
2018-05-12T06:05:22.789Z,23.00
2018-05-12T06:08:25.379Z,23.60
2018-05-12T06:11:28.021Z,24.10
2018-05-12T06:14:31.397Z,25.40
2018-05-12T06:17:34.058Z,25.30
2018-05-12T06:20:36.826Z,25.80
2018-05-12T06:23:39.483Z,26.40
2018-05-12T06:26:42.074Z,27.10
2018-05-12T06:29:44.774Z,27.60
2018-05-12T06:32:47.376Z,28.30
2018-05-12T06:35:50.258Z,29.10
2018-05-12T06:38:52.978Z,29.60
2018-05-12T06:41:55.578Z,30.30
2018-05-12T06:44:58.322Z,30.70
2018-05-12T06:48:00.895Z,30.60
2018-05-12T06:51:03.528Z,30.90
2018-05-12T06:54:06.877Z,32.60
2018-05-12T06:57:09.465Z,32.60
2018-05-12T07:00:12.053Z,33.40
2018-05-12T07:03:14.672Z,34.00
2018-05-12T07:06:18.045Z,35.50
2018-05-12T07:09:20.689Z,35.50
2018-05-12T07:12:23.354Z,35.90
2018-05-12T07:15:26.709Z,36.80
2018-05-12T07:18:29.301Z,36.80
2018-05-12T07:21:31.878Z,37.50
2018-05-12T07:24:34.488Z,38.10
2018-05-12T07:27:37.999Z,39.60
2018-05-12T07:30:41.534Z,40.30
2018-05-12T07:33:44.143Z,40.20
2018-05-12T07:36:46.753Z,40.70
2018-05-12T07:39:49.342Z,41.30
2018-05-12T07:42:52.737Z,43.00
2018-05-12T07:45:55.335Z,43.00
2018-05-12T07:48:58.744Z,44.30
2018-05-12T07:52:01.321Z,44.30
2018-05-12T07:55:04.083Z,44.60
2018-05-12T07:58:06.663Z,45.40
2018-05-12T08:01:09.300Z,45.90
2018-05-12T08:04:11.879Z,46.10
2018-05-12T08:07:14.530Z,46.60
2018-05-12T08:10:18.153Z,46.40
2018-05-12T08:13:20.836Z,46.40
2018-05-12T08:16:23.470Z,45.80
2018-05-12T08:19:27.027Z,43.30
2018-05-12T08:22:29.619Z,43.20
2018-05-12T08:25:32.201Z,42.30
2018-05-12T08:32:16.017Z,38.10
2018-05-12T08:35:18.651Z,37.10
2018-05-12T08:38:21.276Z,36.10
2018-05-12T08:41:23.906Z,35.40
2018-05-12T08:44:26.628Z,34.70
2018-05-12T08:47:29.398Z,34.10
2018-05-12T08:50:32.004Z,33.50
2018-05-12T08:53:34.605Z,32.60
2018-05-12T08:56:37.325Z,31.80
2018-05-12T08:59:39.996Z,31.00
2018-05-12T09:02:42.636Z,30.40
2018-05-12T09:05:45.255Z,29.90
2018-05-12T09:08:48.679Z,29.60
2018-05-12T09:11:51.444Z,29.60
2018-05-12T09:14:54.545Z,29.10
2018-05-12T09:17:57.226Z,29.10
2018-05-12T09:21:01.762Z,29.00
2018-05-12T09:24:04.491Z,29.00
2018-05-12T09:27:09.244Z,28.70
2018-05-12T09:30:11.893Z,28.80
2018-05-12T09:33:14.509Z,28.80
2018-05-12T09:36:17.223Z,29.00
2018-05-12T09:39:20.824Z,28.10
2018-05-12T09:42:23.674Z,28.10
2018-05-12T09:45:26.328Z,28.30
2018-05-12T09:48:28.953Z,28.30
2018-05-12T09:51:32.553Z,28.20
2018-05-12T09:54:35.174Z,27.90
2018-05-12T09:57:38.792Z,28.30
2018-05-12T10:00:41.435Z,28.50
2018-05-12T10:03:44.117Z,28.70
2018-05-12T10:06:47.068Z,28.40
2018-05-12T10:09:49.853Z,28.20
2018-05-12T10:12:52.582Z,28.20
2018-05-12T10:15:55.223Z,27.70
2018-05-12T10:18:57.991Z,27.40
2018-05-12T10:22:00.623Z,27.40
2018-05-12T10:25:04.051Z,28.00
2018-05-12T10:28:06.764Z,28.00
2018-05-12T10:31:10.312Z,28.10
2018-05-12T10:34:12.960Z,27.90
2018-05-12T10:37:15.640Z,28.10
2018-05-12T10:40:18.306Z,27.90
2018-05-12T10:43:21.016Z,28.10
2018-05-12T10:46:23.650Z,28.20
2018-05-12T10:49:26.390Z,28.30
2018-05-12T10:52:29.009Z,28.10
2018-05-12T10:55:31.716Z,28.20
2018-05-12T10:58:34.382Z,27.90
2018-05-12T11:01:37.003Z,28.10
2018-05-12T11:04:39.616Z,28.30
2018-05-12T11:07:44.019Z,28.40
2018-05-12T11:10:46.663Z,28.50
2018-05-12T11:13:50.038Z,28.90
2018-05-12T11:16:52.663Z,28.90
2018-05-12T11:19:55.252Z,28.60
2018-05-12T11:22:57.970Z,28.70
2018-05-12T11:26:00.566Z,28.80
2018-05-12T11:29:03.506Z,29.00
2018-05-12T11:32:06.363Z,28.70
2018-05-12T11:35:08.976Z,28.70
2018-05-12T11:38:11.591Z,28.70
2018-05-12T11:41:15.286Z,28.70
2018-05-12T11:44:19.368Z,28.80
2018-05-12T11:47:22.696Z,28.80
2018-05-12T11:50:25.486Z,28.90
2018-05-12T11:53:28.118Z,29.00
2018-05-12T11:56:32.748Z,29.00
2018-05-12T11:59:35.479Z,29.00
2018-05-12T12:02:39.048Z,28.90
2018-05-12T12:05:42.528Z,28.90
2018-05-12T12:08:45.398Z,28.90
2018-05-12T12:11:48.921Z,29.20
2018-05-12T12:14:51.808Z,29.50
2018-05-12T12:17:54.586Z,29.20
2018-05-12T12:20:57.246Z,28.70
2018-05-12T12:24:00.518Z,28.80
2018-05-12T12:27:03.126Z,28.60
2018-05-12T12:30:05.759Z,28.20
2018-05-12T12:33:08.388Z,28.20
2018-05-12T12:36:11.040Z,27.90
2018-05-12T12:39:13.736Z,28.00
2018-05-12T12:42:16.379Z,27.70
2018-05-12T12:45:19.743Z,28.40
2018-05-12T12:48:22.379Z,28.40
2018-05-12T12:51:25.766Z,28.50
2018-05-12T12:54:28.812Z,28.40
2018-05-12T12:57:31.405Z,28.40
2018-05-12T13:00:34.100Z,28.40
2018-05-12T13:03:37.037Z,28.50
2018-05-12T13:06:39.658Z,28.50
2018-05-12T13:09:42.238Z,28.40
2018-05-12T13:12:44.892Z,28.20
2018-05-12T13:15:47.527Z,28.20
2018-05-12T13:18:50.979Z,28.10
2018-05-12T13:21:53.703Z,28.00
2018-05-12T13:24:56.316Z,27.90
2018-05-12T13:27:59.089Z,27.70
2018-05-12T13:31:02.322Z,27.70
2018-05-12T13:34:04.992Z,27.60
2018-05-12T13:37:07.607Z,27.50
2018-05-12T13:40:10.246Z,27.70
2018-05-12T13:43:12.874Z,27.50
2018-05-12T13:46:15.502Z,27.60
2018-05-12T13:49:18.235Z,27.40
2018-05-12T13:52:20.816Z,27.20
2018-05-12T13:55:24.266Z,27.30
2018-05-12T13:58:26.861Z,27.40
2018-05-12T14:01:29.534Z,27.50
2018-05-12T14:04:32.130Z,27.40
2018-05-12T14:07:35.049Z,27.40
2018-05-12T14:10:37.680Z,27.30
2018-05-12T14:13:40.295Z,27.30
2018-05-12T14:16:43.966Z,27.10
2018-05-12T14:22:55.830Z,26.90
2018-05-12T14:25:59.315Z,26.50
2018-05-12T14:29:03.433Z,26.40
2018-05-12T14:32:06.881Z,26.60
2018-05-12T14:35:09.493Z,26.60
2018-05-12T14:38:12.132Z,26.60
2018-05-12T14:41:14.840Z,26.60
2018-05-12T14:44:17.471Z,26.60
2018-05-12T14:47:21.711Z,26.40
2018-05-12T14:50:24.615Z,26.60
2018-05-12T14:53:28.321Z,26.60
2018-05-12T14:56:30.948Z,26.80
2018-05-12T14:59:33.528Z,27.00
2018-05-12T15:02:36.575Z,27.10
2018-05-12T15:05:39.214Z,27.10
2018-05-12T15:08:42.042Z,27.00
2018-05-12T15:11:44.647Z,26.80
2018-05-12T15:14:47.371Z,26.70
2018-05-12T15:17:49.909Z,26.70
2018-05-12T15:20:52.611Z,26.60
2018-05-12T15:23:55.245Z,26.60
2018-05-12T15:26:57.920Z,26.60
2018-05-12T15:30:01.419Z,26.70
2018-05-12T15:33:04.814Z,26.60
2018-05-12T15:36:07.493Z,26.60
2018-05-12T15:39:10.073Z,26.60
2018-05-12T15:42:12.818Z,26.50
2018-05-12T15:45:15.427Z,26.50
2018-05-12T15:48:18.068Z,26.50
2018-05-12T15:51:20.660Z,26.70
2018-05-12T15:54:23.406Z,26.90
2018-05-12T15:57:26.181Z,27.00
2018-05-12T16:00:28.750Z,27.00
2018-05-12T16:03:31.359Z,27.00
2018-05-12T16:06:34.744Z,26.70
2018-05-12T16:09:38.172Z,26.70
2018-05-12T16:12:40.902Z,26.70
2018-05-12T16:15:43.738Z,26.70
2018-05-12T16:18:46.855Z,26.70
2018-05-12T16:21:49.994Z,26.60
2018-05-12T16:24:54.514Z,26.40
2018-05-12T16:27:57.163Z,26.40
2018-05-12T16:31:00.863Z,26.40
2018-05-12T16:34:04.489Z,26.30
2018-05-12T16:37:08.583Z,26.20
2018-05-12T16:40:11.214Z,26.00
2018-05-12T16:43:13.807Z,25.90
2018-05-12T16:46:16.456Z,25.60
2018-05-12T16:49:20.582Z,25.00
2018-05-12T16:52:23.196Z,24.90
2018-05-12T16:55:25.807Z,24.80
2018-05-12T16:58:28.497Z,24.60
2018-05-12T17:01:31.100Z,24.70
2018-05-12T17:04:34.483Z,24.80
2018-05-12T17:07:37.170Z,24.80
2018-05-12T17:10:39.843Z,24.80
2018-05-12T17:13:42.542Z,24.90
2018-05-12T17:16:45.163Z,24.90
2018-05-12T17:19:47.774Z,25.00
2018-05-12T17:22:51.133Z,25.00
2018-05-12T17:25:53.752Z,25.00
2018-05-12T17:28:56.339Z,25.00
2018-05-12T17:31:59.814Z,24.50
2018-05-12T17:35:02.480Z,24.50
2018-05-12T17:38:05.405Z,24.20
2018-05-12T17:41:08.820Z,23.80
2018-05-12T17:44:11.541Z,23.80
2018-05-12T17:47:14.852Z,23.50
2018-05-12T17:50:18.701Z,23.50
2018-05-12T17:53:21.713Z,23.40
2018-05-12T17:56:25.214Z,22.80
2018-05-12T17:59:28.588Z,22.60
2018-05-12T18:02:31.718Z,22.60
2018-05-12T18:05:34.313Z,22.50
2018-05-12T18:08:36.963Z,22.40
2018-05-12T18:11:41.204Z,21.90
2018-05-12T18:14:43.812Z,21.90
2018-05-12T18:17:46.597Z,21.70
2018-05-12T18:20:49.282Z,21.60
2018-05-12T18:23:51.858Z,21.50
2018-05-12T18:26:54.508Z,21.30
2018-05-12T18:29:57.415Z,21.20
2018-05-12T18:33:00.132Z,21.10
2018-05-12T18:36:02.737Z,21.10
2018-05-12T18:39:06.304Z,21.00
2018-05-12T18:42:09.266Z,20.90
2018-05-12T18:45:11.891Z,20.70
2018-05-12T18:48:14.488Z,20.40
2018-05-12T18:51:17.150Z,20.20
2018-05-12T18:54:19.819Z,20.20
2018-05-12T18:57:22.472Z,20.20
2018-05-12T19:00:25.075Z,20.20
2018-05-12T19:03:29.846Z,20.20
2018-05-12T19:06:32.545Z,20.20
2018-05-12T19:09:35.134Z,20.20
2018-05-12T19:12:37.788Z,20.20
2018-05-12T19:15:40.628Z,20.20
2018-05-12T19:18:43.412Z,20.20
2018-05-12T19:21:47.019Z,20.00
2018-05-12T19:24:49.584Z,20.00
2018-05-12T19:27:53.026Z,19.70
2018-05-12T19:30:55.719Z,19.70
2018-05-12T19:33:58.602Z,19.30
2018-05-12T19:37:01.631Z,19.00
2018-05-12T19:40:04.306Z,18.80
2018-05-12T19:43:06.963Z,18.70
2018-05-12T19:46:09.686Z,18.60
2018-05-12T19:49:12.313Z,18.70
2018-05-12T19:52:14.916Z,18.80
2018-05-12T19:55:18.115Z,18.90
2018-05-12T19:58:21.009Z,18.90
2018-05-12T20:01:24.246Z,18.90
2018-05-12T20:04:26.859Z,19.00
2018-05-12T20:07:29.515Z,18.80
2018-05-12T20:10:32.230Z,18.60
2018-05-12T20:13:34.834Z,18.50
2018-05-12T20:16:37.689Z,18.30
2018-05-12T20:19:41.002Z,18.40
2018-05-12T20:22:43.671Z,18.50
2018-05-12T20:25:46.400Z,18.40
2018-05-12T20:28:49.042Z,18.40
2018-05-12T20:31:51.723Z,18.50
2018-05-12T20:34:54.566Z,18.50
2018-05-12T20:37:57.652Z,18.60
2018-05-12T20:41:00.256Z,18.60
2018-05-12T20:44:02.935Z,18.70
2018-05-12T20:47:05.629Z,18.70
2018-05-12T20:50:08.553Z,18.60
2018-05-12T20:53:11.178Z,18.60
2018-05-12T20:56:13.856Z,18.50
2018-05-12T20:59:16.754Z,18.40
2018-05-12T21:02:19.426Z,18.40
2018-05-12T21:05:23.007Z,18.40
2018-05-12T21:08:25.715Z,18.30
2018-05-12T21:11:28.293Z,18.30
2018-05-12T21:14:30.888Z,18.30
2018-05-12T21:17:33.724Z,18.20
2018-05-12T21:20:36.565Z,18.30
2018-05-12T21:23:39.266Z,18.30
2018-05-12T21:26:41.981Z,18.40
2018-05-12T21:29:44.592Z,18.40
2018-05-12T21:32:47.188Z,18.50
2018-05-12T21:35:49.791Z,18.50
2018-05-12T21:38:53.369Z,18.50
2018-05-12T21:41:55.993Z,18.40
2018-05-12T21:44:58.694Z,18.30
2018-05-12T21:48:01.297Z,18.10
2018-05-12T21:51:03.912Z,18.20
2018-05-12T21:54:07.436Z,18.20
2018-05-12T21:57:10.020Z,18.20
2018-05-12T22:00:13.073Z,18.30
2018-05-12T22:03:15.679Z,18.30
2018-05-12T22:06:18.331Z,18.30
2018-05-12T22:09:20.901Z,18.30
2018-05-12T22:12:23.524Z,18.20
2018-05-12T22:15:26.124Z,18.20
2018-05-12T22:18:28.771Z,18.20
2018-05-12T22:21:31.375Z,18.20
2018-05-12T22:24:34.026Z,18.20
2018-05-12T22:27:36.618Z,18.20
2018-05-12T22:30:39.286Z,18.20
2018-05-12T22:33:41.925Z,18.20
2018-05-12T22:36:45.254Z,18.20
2018-05-12T22:39:47.894Z,18.20
2018-05-12T22:42:50.594Z,18.20
2018-05-12T22:45:54.147Z,18.20
2018-05-12T22:48:57.031Z,18.20
2018-05-12T22:51:59.678Z,18.20
2018-05-12T22:55:03.052Z,18.10
2018-05-12T22:58:05.675Z,18.10
2018-05-12T23:01:08.347Z,18.10
2018-05-12T23:04:11.781Z,18.10
2018-05-12T23:07:14.391Z,18.10
2018-05-12T23:10:17.030Z,18.10
2018-05-12T23:13:19.654Z,18.00
2018-05-12T23:16:22.252Z,18.00
2018-05-12T23:19:24.881Z,18.00
2018-05-12T23:22:27.486Z,18.00
2018-05-12T23:25:30.086Z,18.00
2018-05-12T23:28:32.690Z,18.00
2018-05-12T23:31:35.303Z,18.00
2018-05-12T23:34:38.403Z,18.00
2018-05-12T23:37:41.009Z,18.00
2018-05-12T23:40:43.640Z,17.90
2018-05-12T23:43:47.004Z,17.90
2018-05-12T23:46:49.644Z,17.80
2018-05-12T23:49:52.236Z,17.80
2018-05-12T23:52:54.934Z,17.80
2018-05-12T23:55:57.520Z,17.80
2018-05-12T23:59:00.836Z,17.70
